createdAt,value
2018-06-22T00:00:30.147Z,42.80
2018-06-22T00:03:54.767Z,42.60
2018-06-22T00:07:19.414Z,41.92
2018-06-22T00:10:44.039Z,42.78
2018-06-22T00:14:09.373Z,43.26
2018-06-22T00:17:34.011Z,42.84
2018-06-22T00:20:58.709Z,42.91
2018-06-22T00:24:23.351Z,41.78
2018-06-22T00:27:48.040Z,42.31
2018-06-22T00:31:12.299Z,41.79
2018-06-22T00:34:36.958Z,41.56
2018-06-22T00:38:01.574Z,41.40
2018-06-22T00:41:26.207Z,41.47
2018-06-22T00:44:50.962Z,41.45
2018-06-22T00:48:15.619Z,41.51
2018-06-22T00:51:40.276Z,41.36
2018-06-22T00:55:04.655Z,41.07
2018-06-22T00:58:29.263Z,41.59
2018-06-22T01:01:53.869Z,41.33
2018-06-22T01:05:18.552Z,42.34
2018-06-22T01:08:43.343Z,41.65
2018-06-22T01:12:08.076Z,42.96
2018-06-22T01:15:32.733Z,42.24
2018-06-22T01:18:57.379Z,42.50
2018-06-22T01:22:22.168Z,42.80
2018-06-22T01:25:47.058Z,42.36
2018-06-22T01:29:16.933Z,43.08
2018-06-22T01:32:41.597Z,43.22
2018-06-22T01:36:06.231Z,42.82
2018-06-22T01:39:30.867Z,43.31
2018-06-22T01:42:55.517Z,43.55
2018-06-22T01:46:20.114Z,43.19
2018-06-22T01:49:44.784Z,43.71
2018-06-22T01:53:09.437Z,43.38
2018-06-22T01:56:33.709Z,44.30
2018-06-22T01:59:58.363Z,44.62
2018-06-22T02:03:22.989Z,44.71
2018-06-22T02:06:47.665Z,44.43
2018-06-22T02:10:12.384Z,44.72
2018-06-22T02:13:37.095Z,45.17
2018-06-22T02:17:01.722Z,44.60
2018-06-22T02:20:26.340Z,44.52
2018-06-22T02:23:51.071Z,44.85
2018-06-22T02:27:15.718Z,45.01
2018-06-22T02:30:40.321Z,44.67
2018-06-22T02:34:04.997Z,44.15
2018-06-22T02:37:29.657Z,44.78
2018-06-22T02:40:54.421Z,44.26
2018-06-22T02:44:19.205Z,45.46
2018-06-22T02:47:43.950Z,44.34
2018-06-22T02:51:08.763Z,45.38
2018-06-22T02:54:33.406Z,44.20
2018-06-22T02:57:58.033Z,44.92
2018-06-22T03:01:22.645Z,45.08
2018-06-22T03:04:47.313Z,45.04
2018-06-22T03:08:12.052Z,45.67
2018-06-22T03:11:36.753Z,45.50
2018-06-22T03:15:01.473Z,45.56
2018-06-22T03:18:25.775Z,46.05
2018-06-22T03:21:50.409Z,45.24
2018-06-22T03:25:15.092Z,45.02
2018-06-22T03:28:39.393Z,44.95
2018-06-22T03:32:04.115Z,45.34
2018-06-22T03:35:28.752Z,46.12
2018-06-22T03:38:53.407Z,46.03
2018-06-22T03:42:17.759Z,46.16
2018-06-22T03:45:42.367Z,46.95
2018-06-22T03:49:07.016Z,46.37
2018-06-22T03:52:31.719Z,46.49
2018-06-22T03:55:56.346Z,47.27
2018-06-22T03:59:20.983Z,46.99
2018-06-22T04:02:45.650Z,46.68
2018-06-22T04:06:10.331Z,46.87
2018-06-22T04:09:35.105Z,46.05
2018-06-22T04:12:59.839Z,47.63
2018-06-22T04:16:24.545Z,46.52
2018-06-22T04:19:49.273Z,46.96
2018-06-22T04:23:13.653Z,47.28
2018-06-22T04:26:38.329Z,47.35
2018-06-22T04:30:02.973Z,46.83
2018-06-22T04:33:27.727Z,47.52
2018-06-22T04:36:52.435Z,47.96
2018-06-22T04:40:17.177Z,47.63
2018-06-22T04:43:41.835Z,47.78
2018-06-22T04:47:06.535Z,47.45
2018-06-22T04:50:31.290Z,48.76
2018-06-22T04:53:56.074Z,48.52
2018-06-22T04:57:20.947Z,48.56
2018-06-22T05:00:45.683Z,47.84
2018-06-22T05:04:10.411Z,47.32
2018-06-22T05:07:35.235Z,47.80
2018-06-22T05:10:59.898Z,47.47
2018-06-22T05:14:24.605Z,48.45
2018-06-22T05:17:49.348Z,48.43
2018-06-22T05:21:14.027Z,48.94
2018-06-22T05:24:38.726Z,47.93
2018-06-22T05:28:03.425Z,48.92
2018-06-22T05:31:28.109Z,49.55
2018-06-22T05:34:52.812Z,49.55
2018-06-22T05:38:17.685Z,49.23
2018-06-22T05:41:42.335Z,48.84
2018-06-22T05:45:07.026Z,48.63
2018-06-22T05:48:31.617Z,48.84
2018-06-22T05:51:56.313Z,48.92
2018-06-22T05:55:20.946Z,48.96
2018-06-22T05:58:45.594Z,48.86
2018-06-22T06:02:10.223Z,47.94
2018-06-22T06:05:34.857Z,49.44
2018-06-22T06:08:59.517Z,49.45
2018-06-22T06:12:24.229Z,49.07
2018-06-22T06:15:48.861Z,48.97
2018-06-22T06:19:13.477Z,48.95
2018-06-22T06:22:38.371Z,48.92
2018-06-22T06:26:03.039Z,48.55
2018-06-22T06:29:27.709Z,48.37
2018-06-22T06:32:52.369Z,49.71
2018-06-22T06:36:17.061Z,49.20
2018-06-22T06:39:41.675Z,48.73
2018-06-22T06:43:06.363Z,49.29
2018-06-22T06:46:31.008Z,49.31
2018-06-22T06:49:55.644Z,47.66
2018-06-22T06:53:20.301Z,47.68
2018-06-22T06:56:44.958Z,48.97
2018-06-22T07:00:10.094Z,48.78
2018-06-22T07:03:34.762Z,48.88
2018-06-22T07:06:59.459Z,48.48
2018-06-22T07:10:24.062Z,47.13
2018-06-22T07:13:48.713Z,47.76
2018-06-22T07:17:13.416Z,47.75
2018-06-22T07:20:38.448Z,46.96
2018-06-22T07:24:03.214Z,46.53
2018-06-22T07:27:27.996Z,46.57
2018-06-22T07:30:52.664Z,46.62
2018-06-22T07:34:17.384Z,44.93
2018-06-22T07:37:42.223Z,46.04
2018-06-22T07:41:07.157Z,44.52
2018-06-22T07:44:31.846Z,44.45
2018-06-22T07:47:56.473Z,43.68
2018-06-22T07:51:21.091Z,42.89
2018-06-22T07:54:45.714Z,43.12
2018-06-22T07:58:10.347Z,42.85
2018-06-22T08:01:34.997Z,42.79
2018-06-22T08:04:59.644Z,44.01
2018-06-22T08:08:24.305Z,42.79
2018-06-22T08:11:48.907Z,42.95
2018-06-22T08:15:13.550Z,41.82
2018-06-22T08:18:38.283Z,42.67
2018-06-22T08:22:02.941Z,42.81
2018-06-22T08:25:27.549Z,42.03
2018-06-22T08:28:52.154Z,43.02
2018-06-22T08:32:16.786Z,42.17
2018-06-22T08:35:41.442Z,42.25
2018-06-22T08:39:09.385Z,41.93
2018-06-22T08:42:35.029Z,42.66
2018-06-22T08:45:59.639Z,42.17
2018-06-22T08:49:24.343Z,41.93
2018-06-22T08:52:49.003Z,42.03
2018-06-22T08:56:13.284Z,41.65
2018-06-22T08:59:37.880Z,40.91
2018-06-22T09:03:02.565Z,41.32
2018-06-22T09:06:27.263Z,40.78
2018-06-22T09:09:51.875Z,39.75
2018-06-22T09:13:16.603Z,40.37
2018-06-22T09:16:41.257Z,39.85
2018-06-22T09:20:06.004Z,41.09
2018-06-22T09:23:30.710Z,40.97
2018-06-22T09:26:55.323Z,41.28
2018-06-22T09:30:19.965Z,39.63
2018-06-22T09:33:44.687Z,40.55
2018-06-22T09:37:09.358Z,40.61
2018-06-22T09:40:34.090Z,39.68
2018-06-22T09:43:58.794Z,40.06
2018-06-22T09:47:23.525Z,38.70
2018-06-22T09:50:48.140Z,38.45
2018-06-22T09:54:12.855Z,41.02
2018-06-22T09:57:37.655Z,38.47
2018-06-22T10:01:02.317Z,37.97
2018-06-22T10:04:26.941Z,37.09
2018-06-22T10:07:51.617Z,37.00
2018-06-22T10:11:16.241Z,36.78
2018-06-22T10:14:40.910Z,36.81
2018-06-22T10:18:05.634Z,35.54
2018-06-22T10:21:30.303Z,35.37
2018-06-22T10:24:54.938Z,35.29
2018-06-22T10:28:19.624Z,36.31
2018-06-22T10:31:44.225Z,34.60
2018-06-22T10:35:08.944Z,34.10
2018-06-22T10:38:33.599Z,34.41
2018-06-22T10:41:58.228Z,35.49
2018-06-22T10:45:22.961Z,34.55
2018-06-22T10:48:47.285Z,32.56
2018-06-22T10:52:13.243Z,33.86
2018-06-22T10:55:37.900Z,32.69
2018-06-22T10:59:02.861Z,32.39
2018-06-22T11:02:27.561Z,31.53
2018-06-22T11:05:52.389Z,32.59
2018-06-22T11:09:16.967Z,31.86
2018-06-22T11:12:43.622Z,31.40
2018-06-22T11:16:08.352Z,29.92
2018-06-22T11:19:33.154Z,29.43
2018-06-22T11:22:58.053Z,28.90
2018-06-22T11:26:23.589Z,28.77
2018-06-22T11:29:49.129Z,27.34
2018-06-22T11:33:13.931Z,28.66
2018-06-22T11:36:38.652Z,28.88
2018-06-22T11:40:03.493Z,28.14
2018-06-22T11:43:28.268Z,27.47
2018-06-22T11:46:53.076Z,28.16
2018-06-22T11:50:17.980Z,27.68
2018-06-22T11:53:43.374Z,27.73
2018-06-22T11:57:09.349Z,27.91
2018-06-22T12:00:34.270Z,27.85
2018-06-22T12:03:58.594Z,28.89
2018-06-22T12:07:24.203Z,28.05
2018-06-22T12:10:49.070Z,27.93
2018-06-22T12:14:13.946Z,28.94
2018-06-22T12:17:38.786Z,28.36
2018-06-22T12:21:03.548Z,29.11
2018-06-22T12:24:28.232Z,28.22
2018-06-22T12:27:52.930Z,28.51
2018-06-22T12:31:17.605Z,28.72
2018-06-22T12:34:42.218Z,29.42
2018-06-22T12:38:06.864Z,28.74
2018-06-22T12:41:31.228Z,29.06
2018-06-22T12:44:55.998Z,28.55
2018-06-22T12:48:20.753Z,29.07
2018-06-22T12:51:45.377Z,28.48
2018-06-22T12:55:10.033Z,28.34
2018-06-22T12:58:34.688Z,28.03
2018-06-22T13:01:59.325Z,26.81
2018-06-22T13:05:24.002Z,26.92
2018-06-22T13:08:48.709Z,27.71
2018-06-22T13:12:13.330Z,27.16
2018-06-22T13:15:38.044Z,28.87
2018-06-22T13:19:02.715Z,28.64
2018-06-22T13:22:27.325Z,27.00
2018-06-22T13:25:52.036Z,29.06
2018-06-22T13:29:16.759Z,28.99
2018-06-22T13:32:41.344Z,28.35
2018-06-22T13:36:06.245Z,29.16
2018-06-22T13:39:30.902Z,30.25
2018-06-22T13:42:55.689Z,29.80
2018-06-22T13:46:20.424Z,29.99
2018-06-22T13:49:45.049Z,29.39
2018-06-22T13:53:10.152Z,30.14
2018-06-22T13:56:35.541Z,29.06
2018-06-22T14:00:00.240Z,28.64
2018-06-22T14:03:24.845Z,27.31
2018-06-22T14:06:55.497Z,29.67
2018-06-22T14:10:20.196Z,30.38
2018-06-22T14:13:44.848Z,30.82
2018-06-22T14:17:09.466Z,29.79
2018-06-22T14:20:34.465Z,31.13
2018-06-22T14:23:59.186Z,30.10
2018-06-22T14:27:24.117Z,29.93
2018-06-22T14:30:48.901Z,30.38
2018-06-22T14:34:13.559Z,28.86
2018-06-22T14:37:38.263Z,28.38
2018-06-22T14:41:05.231Z,28.72
2018-06-22T14:44:29.841Z,29.18
2018-06-22T14:47:54.625Z,29.12
2018-06-22T14:51:19.272Z,28.71
2018-06-22T14:54:49.144Z,30.71
2018-06-22T14:58:19.149Z,31.01
2018-06-22T15:01:49.263Z,30.29
2018-06-22T15:05:19.236Z,32.32
2018-06-22T15:08:43.716Z,31.98
2018-06-22T15:12:08.475Z,32.32
2018-06-22T15:15:33.698Z,32.55
2018-06-22T15:18:59.156Z,32.10
2018-06-22T15:22:23.860Z,31.00
2018-06-22T15:25:49.470Z,30.02
2018-06-22T15:29:14.186Z,31.93
2018-06-22T15:32:39.704Z,30.24
2018-06-22T15:36:09.709Z,28.99
2018-06-22T15:39:39.848Z,28.12
2018-06-22T15:43:09.877Z,27.78
2018-06-22T15:46:39.916Z,31.21
2018-06-22T15:51:09.190Z,32.13
2018-06-22T15:54:39.364Z,31.55
2018-06-22T15:58:04.394Z,31.71
2018-06-22T16:01:29.109Z,32.25
2018-06-22T16:04:53.858Z,32.64
2018-06-22T16:08:18.584Z,32.58
2018-06-22T16:11:43.293Z,33.27
2018-06-22T16:15:16.774Z,34.15
2018-06-22T16:18:46.770Z,33.79
2018-06-22T16:22:16.896Z,33.87
2018-06-22T16:26:48.539Z,33.63
2018-06-22T16:30:13.307Z,34.57
2018-06-22T16:33:42.336Z,34.95
2018-06-22T16:37:08.721Z,34.61
2018-06-22T16:40:33.399Z,33.91
2018-06-22T16:43:58.037Z,33.29
2018-06-22T16:47:22.819Z,33.94
2018-06-22T16:50:47.492Z,33.53
2018-06-22T16:54:12.230Z,33.51
2018-06-22T16:57:37.036Z,33.21
2018-06-22T17:01:01.694Z,33.45
2018-06-22T17:04:26.352Z,33.27
2018-06-22T17:07:56.222Z,33.09
2018-06-22T17:11:26.240Z,31.57
2018-06-22T17:14:56.065Z,33.26
2018-06-22T17:18:25.879Z,32.40
2018-06-22T17:21:51.075Z,33.16
2018-06-22T17:25:15.768Z,32.31
2018-06-22T17:28:40.419Z,32.30
2018-06-22T17:32:05.142Z,31.52
2018-06-22T17:35:29.736Z,31.89
2018-06-22T17:38:54.377Z,33.32
2018-06-22T17:42:19.087Z,33.77
2018-06-22T17:45:43.891Z,34.29
2018-06-22T17:49:08.285Z,34.09
2018-06-22T17:52:33.040Z,33.97
2018-06-22T17:55:57.804Z,35.01
2018-06-22T17:59:28.016Z,35.27
2018-06-22T18:02:58.247Z,35.07
2018-06-22T18:06:28.439Z,34.91
2018-06-22T18:09:58.289Z,35.35
2018-06-22T18:13:23.064Z,34.75
2018-06-22T18:16:48.796Z,34.50
2018-06-22T18:20:13.507Z,34.94
2018-06-22T18:23:38.246Z,35.06
2018-06-22T18:27:03.205Z,34.15
2018-06-22T18:30:27.920Z,34.87
2018-06-22T18:33:52.359Z,34.27
2018-06-22T18:37:17.671Z,34.92
2018-06-22T18:40:42.321Z,34.39
2018-06-22T18:44:08.056Z,35.89
2018-06-22T18:47:32.765Z,36.85
2018-06-22T18:50:59.042Z,36.86
2018-06-22T18:54:29.068Z,37.37
2018-06-22T18:57:59.729Z,37.95
2018-06-22T19:01:29.550Z,37.51
2018-06-22T19:04:54.253Z,37.00
2018-06-22T19:08:18.996Z,37.63
2018-06-22T19:11:43.726Z,37.87
2018-06-22T19:15:08.459Z,37.69
2018-06-22T19:18:34.326Z,38.75
2018-06-22T19:21:59.570Z,38.78
2018-06-22T19:25:24.431Z,39.54
2018-06-22T19:28:49.377Z,39.39
2018-06-22T19:32:14.134Z,38.86
2018-06-22T19:35:39.006Z,38.71
2018-06-22T19:39:03.866Z,38.77
2018-06-22T19:42:28.605Z,39.14
2018-06-22T19:45:58.478Z,39.32
2018-06-22T19:49:28.151Z,39.56
2018-06-22T19:52:58.134Z,39.31
2018-06-22T19:56:22.777Z,40.39
2018-06-22T19:59:47.424Z,41.53
2018-06-22T20:03:11.744Z,41.57
2018-06-22T20:06:36.495Z,41.74
2018-06-22T20:10:01.256Z,41.63
2018-06-22T20:13:25.957Z,42.83
2018-06-22T20:16:50.796Z,42.87
2018-06-22T20:20:15.590Z,42.57
2018-06-22T20:23:40.403Z,43.31
2018-06-22T20:27:05.236Z,43.73
2018-06-22T20:30:29.974Z,43.03
2018-06-22T20:33:54.712Z,42.98
2018-06-22T20:37:24.826Z,43.59
2018-06-22T20:40:54.729Z,43.61
2018-06-22T20:44:24.743Z,43.48
2018-06-22T20:47:54.719Z,43.16
2018-06-22T20:51:19.350Z,43.38
2018-06-22T20:54:44.790Z,42.96
2018-06-22T20:58:09.470Z,43.71
2018-06-22T21:01:34.175Z,43.39
2018-06-22T21:04:58.788Z,43.03
2018-06-22T21:08:23.071Z,42.71
2018-06-22T21:11:47.859Z,43.55
2018-06-22T21:15:12.541Z,43.39
2018-06-22T21:18:36.870Z,43.29
2018-06-22T21:22:06.822Z,44.56
2018-06-22T21:25:31.480Z,44.67
2018-06-22T21:29:01.194Z,44.56
2018-06-22T21:32:31.234Z,44.83
2018-06-22T21:36:01.212Z,44.92
2018-06-22T21:39:26.899Z,44.86
2018-06-22T21:42:51.683Z,44.92
2018-06-22T21:46:16.305Z,45.05
2018-06-22T21:49:41.325Z,45.85
2018-06-22T21:53:06.090Z,46.54
2018-06-22T21:56:30.732Z,45.83
2018-06-22T21:59:55.379Z,46.19
2018-06-22T22:03:19.701Z,45.67
2018-06-22T22:06:44.349Z,46.00
2018-06-22T22:10:09.071Z,45.63
2018-06-22T22:13:33.781Z,46.48
2018-06-22T22:16:58.456Z,46.55
2018-06-22T22:20:23.149Z,45.93
2018-06-22T22:23:47.872Z,46.62
2018-06-22T22:27:12.589Z,47.62
2018-06-22T22:30:37.560Z,46.12
2018-06-22T22:34:02.219Z,46.91
2018-06-22T22:37:26.516Z,46.84
2018-06-22T22:40:51.225Z,47.12
2018-06-22T22:44:15.895Z,47.94
2018-06-22T22:47:40.541Z,48.18
2018-06-22T22:51:05.384Z,48.18
2018-06-22T22:54:29.978Z,48.76
2018-06-22T22:57:55.615Z,48.77
2018-06-22T23:01:20.332Z,48.81
2018-06-22T23:04:45.013Z,49.44
2018-06-22T23:08:09.694Z,48.83
2018-06-22T23:11:34.431Z,49.28
2018-06-22T23:14:59.094Z,49.22
2018-06-22T23:18:23.731Z,49.42
2018-06-22T23:21:48.475Z,48.82
2018-06-22T23:25:13.184Z,49.29
2018-06-22T23:28:37.862Z,50.32
2018-06-22T23:32:02.510Z,50.02
2018-06-22T23:35:27.158Z,49.81
2018-06-22T23:38:52.658Z,50.52
2018-06-22T23:42:16.931Z,50.06
2018-06-22T23:45:41.593Z,49.96
2018-06-22T23:49:06.374Z,50.38
2018-06-22T23:52:31.121Z,51.09
2018-06-22T23:55:55.781Z,51.41
2018-06-22T23:59:20.464Z,50.47
